Terminal Aerodrome Forecast
Issued by NWS

Current Version | Previous Version | Text Only | Print | Product List | Glossary Off
Versions: 1 2 3 4 5 6 7 8 9 10 11 12 13 14 15 16 17 18 19 20 21 22 23

301
FTUS41 KILN 160534
TAFLUK
TAF
KLUK 160534Z 1606/1706 06004KT 3SM BR OVC007
     FM161500 12005KT 2SM BR OVC009
     FM161800 14007KT 4SM BR OVC015
     FM170000 14005KT P6SM VCSH OVC010=

USA.gov is the U.S. government's official web portal to all federal, state and local government web resources and services.